sensor_id;sensor_type;location;lat;lon;timestamp;P1;durP1;ratioP1;P2;durP2;ratioP2
55330;SDS011;58851;42.984;20.336;2024-03-23T00:54:32;63.70;;;39.17;;
55330;SDS011;58851;42.984;20.336;2024-03-23T00:56:57;56.95;;;37.10;;
55330;SDS011;58851;42.984;20.336;2024-03-23T00:59:23;72.43;;;44.05;;
55330;SDS011;58851;42.984;20.336;2024-03-23T01:01:52;70.60;;;41.75;;
55330;SDS011;58851;42.984;20.336;2024-03-23T01:04:18;77.35;;;44.00;;
55330;SDS011;58851;42.984;20.336;2024-03-23T01:06:44;90.03;;;48.53;;
55330;SDS011;58851;42.984;20.336;2024-03-23T01:09:10;72.13;;;39.58;;
55330;SDS011;58851;42.984;20.336;2024-03-23T01:11:36;61.25;;;33.85;;
55330;SDS011;58851;42.984;20.336;2024-03-23T01:14:02;57.38;;;35.33;;
55330;SDS011;58851;42.984;20.336;2024-03-23T01:16:28;62.47;;;41.28;;
55330;SDS011;58851;42.984;20.336;2024-03-23T01:18:54;62.00;;;39.22;;
55330;SDS011;58851;42.984;20.336;2024-03-23T01:21:20;58.10;;;35.65;;
55330;SDS011;58851;42.984;20.336;2024-03-23T01:23:45;53.75;;;34.10;;
55330;SDS011;58851;42.984;20.336;2024-03-23T01:26:11;65.72;;;41.65;;
55330;SDS011;58851;42.984;20.336;2024-03-23T01:28:37;59.42;;;38.30;;
55330;SDS011;58851;42.984;20.336;2024-03-23T01:31:03;60.67;;;37.05;;
55330;SDS011;58851;42.984;20.336;2024-03-23T01:33:29;55.72;;;34.00;;
55330;SDS011;58851;42.984;20.336;2024-03-23T01:35:54;67.03;;;37.33;;
55330;SDS011;58851;42.984;20.336;2024-03-23T01:38:20;55.15;;;33.53;;
55330;SDS011;58851;42.984;20.336;2024-03-23T01:40:46;63.08;;;38.83;;
55330;SDS011;58851;42.984;20.336;2024-03-23T01:43:12;59.33;;;34.80;;
55330;SDS011;58851;42.984;20.336;2024-03-23T01:45:37;64.60;;;39.00;;
55330;SDS011;58851;42.984;20.336;2024-03-23T01:48:04;47.67;;;32.00;;
55330;SDS011;58851;42.984;20.336;2024-03-23T01:50:30;44.50;;;32.33;;
55330;SDS011;58851;42.984;20.336;2024-03-23T01:53:00;48.22;;;32.75;;
55330;SDS011;58851;42.984;20.336;2024-03-23T01:55:31;47.30;;;30.88;;
55330;SDS011;58851;42.984;20.336;2024-03-23T01:58:00;50.63;;;33.15;;
55330;SDS011;58851;42.984;20.336;2024-03-23T02:00:25;65.72;;;38.60;;
55330;SDS011;58851;42.984;20.336;2024-03-23T02:02:53;58.63;;;34.65;;
55330;SDS011;58851;42.984;20.336;2024-03-23T02:05:19;94.90;;;49.60;;
55330;SDS011;58851;42.984;20.336;2024-03-23T02:07:45;155.18;;;81.72;;
55330;SDS011;58851;42.984;20.336;2024-03-23T02:10:11;102.18;;;57.03;;
55330;SDS011;58851;42.984;20.336;2024-03-23T02:12:40;131.88;;;74.20;;
55330;SDS011;58851;42.984;20.336;2024-03-23T02:15:06;223.93;;;123.68;;
55330;SDS011;58851;42.984;20.336;2024-03-23T02:17:34;261.63;;;150.30;;
55330;SDS011;58851;42.984;20.336;2024-03-23T02:20:00;239.15;;;132.18;;
55330;SDS011;58851;42.984;20.336;2024-03-23T02:22:39;93.70;;;58.47;;
55330;SDS011;58851;42.984;20.336;2024-03-23T02:25:05;63.17;;;39.88;;
55330;SDS011;58851;42.984;20.336;2024-03-23T02:27:31;48.00;;;31.95;;
55330;SDS011;58851;42.984;20.336;2024-03-23T02:29:58;39.53;;;23.77;;
55330;SDS011;58851;42.984;20.336;2024-03-23T02:32:24;32.60;;;22.05;;
55330;SDS011;58851;42.984;20.336;2024-03-23T02:34:50;40.47;;;23.25;;
55330;SDS011;58851;42.984;20.336;2024-03-23T02:37:15;42.85;;;27.33;;
55330;SDS011;58851;42.984;20.336;2024-03-23T02:39:41;42.45;;;28.15;;
55330;SDS011;58851;42.984;20.336;2024-03-23T02:42:07;58.60;;;33.47;;
55330;SDS011;58851;42.984;20.336;2024-03-23T02:44:33;54.22;;;31.70;;
55330;SDS011;58851;42.984;20.336;2024-03-23T02:46:58;48.90;;;28.48;;
55330;SDS011;58851;42.984;20.336;2024-03-23T02:49:25;49.45;;;30.13;;
55330;SDS011;58851;42.984;20.336;2024-03-23T02:51:50;55.80;;;31.13;;
55330;SDS011;58851;42.984;20.336;2024-03-23T02:54:16;87.75;;;46.38;;
55330;SDS011;58851;42.984;20.336;2024-03-23T02:56:42;221.55;;;108.63;;
55330;SDS011;58851;42.984;20.336;2024-03-23T02:59:08;243.88;;;117.22;;
55330;SDS011;58851;42.984;20.336;2024-03-23T03:01:34;175.07;;;89.10;;
55330;SDS011;58851;42.984;20.336;2024-03-23T03:04:00;251.20;;;116.50;;
55330;SDS011;58851;42.984;20.336;2024-03-23T03:06:26;226.00;;;110.25;;
55330;SDS011;58851;42.984;20.336;2024-03-23T03:08:53;176.52;;;97.07;;
55330;SDS011;58851;42.984;20.336;2024-03-23T03:11:19;195.90;;;99.05;;
55330;SDS011;58851;42.984;20.336;2024-03-23T03:13:45;159.48;;;80.45;;
55330;SDS011;58851;42.984;20.336;2024-03-23T03:16:11;137.85;;;74.85;;
55330;SDS011;58851;42.984;20.336;2024-03-23T03:18:37;64.20;;;40.83;;
55330;SDS011;58851;42.984;20.336;2024-03-23T03:21:03;47.20;;;32.10;;
55330;SDS011;58851;42.984;20.336;2024-03-23T03:23:31;61.53;;;39.08;;
55330;SDS011;58851;42.984;20.336;2024-03-23T03:25:56;56.60;;;36.30;;
55330;SDS011;58851;42.984;20.336;2024-03-23T03:28:23;49.17;;;32.30;;
55330;SDS011;58851;42.984;20.336;2024-03-23T03:30:49;45.85;;;28.40;;
55330;SDS011;58851;42.984;20.336;2024-03-23T03:33:15;54.63;;;36.20;;
55330;SDS011;58851;42.984;20.336;2024-03-23T03:35:40;61.28;;;37.83;;
55330;SDS011;58851;42.984;20.336;2024-03-23T03:38:06;60.90;;;38.35;;
55330;SDS011;58851;42.984;20.336;2024-03-23T03:40:32;62.33;;;36.42;;
55330;SDS011;58851;42.984;20.336;2024-03-23T03:42:58;67.90;;;40.08;;
55330;SDS011;58851;42.984;20.336;2024-03-23T03:45:23;66.38;;;41.55;;
55330;SDS011;58851;42.984;20.336;2024-03-23T03:47:49;63.75;;;36.33;;
55330;SDS011;58851;42.984;20.336;2024-03-23T03:50:15;57.40;;;34.42;;
55330;SDS011;58851;42.984;20.336;2024-03-23T03:52:41;51.42;;;29.13;;
55330;SDS011;58851;42.984;20.336;2024-03-23T03:55:12;45.42;;;26.95;;
55330;SDS011;58851;42.984;20.336;2024-03-23T03:57:40;47.30;;;27.02;;
55330;SDS011;58851;42.984;20.336;2024-03-23T04:00:06;44.45;;;26.90;;
55330;SDS011;58851;42.984;20.336;2024-03-23T04:02:39;44.05;;;27.05;;
55330;SDS011;58851;42.984;20.336;2024-03-23T04:05:05;40.50;;;24.67;;
55330;SDS011;58851;42.984;20.336;2024-03-23T04:07:31;40.85;;;24.45;;
55330;SDS011;58851;42.984;20.336;2024-03-23T04:09:57;68.35;;;36.38;;
55330;SDS011;58851;42.984;20.336;2024-03-23T04:12:23;63.13;;;39.80;;
55330;SDS011;58851;42.984;20.336;2024-03-23T04:14:49;74.97;;;42.92;;
55330;SDS011;58851;42.984;20.336;2024-03-23T04:17:15;87.35;;;47.72;;
55330;SDS011;58851;42.984;20.336;2024-03-23T04:19:41;80.72;;;47.25;;
55330;SDS011;58851;42.984;20.336;2024-03-23T04:22:07;92.85;;;50.15;;
55330;SDS011;58851;42.984;20.336;2024-03-23T04:24:33;93.95;;;52.60;;
55330;SDS011;58851;42.984;20.336;2024-03-23T04:26:59;59.75;;;32.45;;
55330;SDS011;58851;42.984;20.336;2024-03-23T04:29:24;46.80;;;26.45;;
55330;SDS011;58851;42.984;20.336;2024-03-23T04:31:52;44.00;;;27.13;;
55330;SDS011;58851;42.984;20.336;2024-03-23T04:34:17;59.38;;;34.53;;
55330;SDS011;58851;42.984;20.336;2024-03-23T04:36:44;61.17;;;31.83;;
55330;SDS011;58851;42.984;20.336;2024-03-23T04:39:10;48.10;;;30.05;;
55330;SDS011;58851;42.984;20.336;2024-03-23T04:41:35;50.55;;;29.35;;
55330;SDS011;58851;42.984;20.336;2024-03-23T04:44:01;64.47;;;38.08;;
55330;SDS011;58851;42.984;20.336;2024-03-23T04:46:27;57.70;;;32.92;;
55330;SDS011;58851;42.984;20.336;2024-03-23T04:48:53;51.90;;;32.75;;
55330;SDS011;58851;42.984;20.336;2024-03-23T04:51:22;51.95;;;31.95;;
55330;SDS011;58851;42.984;20.336;2024-03-23T04:53:49;56.38;;;33.90;;
55330;SDS011;58851;42.984;20.336;2024-03-23T04:56:20;49.05;;;30.70;;
55330;SDS011;58851;42.984;20.336;2024-03-23T04:58:46;51.90;;;29.58;;
55330;SDS011;58851;42.984;20.336;2024-03-23T05:01:13;54.30;;;28.92;;
55330;SDS011;58851;42.984;20.336;2024-03-23T05:03:39;51.85;;;31.95;;
55330;SDS011;58851;42.984;20.336;2024-03-23T05:06:04;46.70;;;30.00;;
55330;SDS011;58851;42.984;20.336;2024-03-23T05:08:30;54.58;;;32.58;;
55330;SDS011;58851;42.984;20.336;2024-03-23T05:10:56;49.08;;;29.38;;
55330;SDS011;58851;42.984;20.336;2024-03-23T05:13:22;50.05;;;27.27;;
55330;SDS011;58851;42.984;20.336;2024-03-23T05:15:54;55.78;;;28.20;;
55330;SDS011;58851;42.984;20.336;2024-03-23T05:18:20;51.92;;;31.83;;
55330;SDS011;58851;42.984;20.336;2024-03-23T05:20:47;58.53;;;33.75;;
55330;SDS011;58851;42.984;20.336;2024-03-23T05:23:13;49.63;;;31.92;;
55330;SDS011;58851;42.984;20.336;2024-03-23T05:25:39;44.15;;;26.98;;
55330;SDS011;58851;42.984;20.336;2024-03-23T05:28:04;57.80;;;32.65;;
55330;SDS011;58851;42.984;20.336;2024-03-23T05:30:30;176.52;;;83.85;;
55330;SDS011;58851;42.984;20.336;2024-03-23T05:32:56;110.72;;;52.05;;
55330;SDS011;58851;42.984;20.336;2024-03-23T05:35:22;50.25;;;29.67;;
55330;SDS011;58851;42.984;20.336;2024-03-23T05:37:48;41.53;;;27.35;;
55330;SDS011;58851;42.984;20.336;2024-03-23T05:40:14;47.10;;;28.45;;
55330;SDS011;58851;42.984;20.336;2024-03-23T05:42:40;53.53;;;33.95;;
55330;SDS011;58851;42.984;20.336;2024-03-23T05:45:06;61.92;;;39.75;;
55330;SDS011;58851;42.984;20.336;2024-03-23T05:47:33;76.45;;;43.65;;
55330;SDS011;58851;42.984;20.336;2024-03-23T05:49:59;72.93;;;40.63;;
55330;SDS011;58851;42.984;20.336;2024-03-23T05:52:24;65.00;;;36.50;;
55330;SDS011;58851;42.984;20.336;2024-03-23T05:54:52;76.32;;;40.75;;
55330;SDS011;58851;42.984;20.336;2024-03-23T05:57:18;144.05;;;68.43;;
55330;SDS011;58851;42.984;20.336;2024-03-23T05:59:44;141.63;;;64.15;;
55330;SDS011;58851;42.984;20.336;2024-03-23T06:02:10;150.30;;;67.20;;
55330;SDS011;58851;42.984;20.336;2024-03-23T06:04:36;140.10;;;64.30;;
55330;SDS011;58851;42.984;20.336;2024-03-23T06:07:02;148.68;;;73.63;;
55330;SDS011;58851;42.984;20.336;2024-03-23T06:09:28;153.50;;;78.07;;
55330;SDS011;58851;42.984;20.336;2024-03-23T06:11:56;177.50;;;86.20;;
55330;SDS011;58851;42.984;20.336;2024-03-23T06:14:22;154.95;;;79.60;;
55330;SDS011;58851;42.984;20.336;2024-03-23T06:16:48;136.55;;;72.50;;
55330;SDS011;58851;42.984;20.336;2024-03-23T06:19:14;93.70;;;46.45;;
55330;SDS011;58851;42.984;20.336;2024-03-23T06:21:43;91.07;;;48.47;;
55330;SDS011;58851;42.984;20.336;2024-03-23T06:24:09;77.55;;;41.10;;
55330;SDS011;58851;42.984;20.336;2024-03-23T06:26:36;88.22;;;46.28;;
55330;SDS011;58851;42.984;20.336;2024-03-23T06:29:01;86.13;;;46.38;;
55330;SDS011;58851;42.984;20.336;2024-03-23T06:31:28;77.45;;;41.42;;
55330;SDS011;58851;42.984;20.336;2024-03-23T06:33:55;65.97;;;37.55;;
55330;SDS011;58851;42.984;20.336;2024-03-23T06:36:20;80.32;;;41.38;;
55330;SDS011;58851;42.984;20.336;2024-03-23T06:38:46;71.18;;;42.55;;
55330;SDS011;58851;42.984;20.336;2024-03-23T06:41:12;72.40;;;43.38;;
55330;SDS011;58851;42.984;20.336;2024-03-23T06:43:38;69.45;;;43.17;;
55330;SDS011;58851;42.984;20.336;2024-03-23T06:46:04;73.47;;;42.85;;
55330;SDS011;58851;42.984;20.336;2024-03-23T06:48:30;64.90;;;38.72;;
55330;SDS011;58851;42.984;20.336;2024-03-23T06:50:56;53.33;;;31.85;;
55330;SDS011;58851;42.984;20.336;2024-03-23T06:53:22;57.00;;;33.00;;
55330;SDS011;58851;42.984;20.336;2024-03-23T06:55:54;51.10;;;29.35;;
55330;SDS011;58851;42.984;20.336;2024-03-23T06:58:21;41.17;;;24.55;;
55330;SDS011;58851;42.984;20.336;2024-03-23T07:00:48;46.17;;;27.67;;
55330;SDS011;58851;42.984;20.336;2024-03-23T07:03:14;51.20;;;28.75;;
55330;SDS011;58851;42.984;20.336;2024-03-23T07:05:41;44.83;;;23.50;;
55330;SDS011;58851;42.984;20.336;2024-03-23T07:08:07;40.55;;;24.15;;
55330;SDS011;58851;42.984;20.336;2024-03-23T07:10:33;32.33;;;20.05;;
55330;SDS011;58851;42.984;20.336;2024-03-23T07:12:59;40.88;;;23.27;;
55330;SDS011;58851;42.984;20.336;2024-03-23T07:15:25;48.03;;;28.60;;
55330;SDS011;58851;42.984;20.336;2024-03-23T07:17:50;49.03;;;30.02;;
55330;SDS011;58851;42.984;20.336;2024-03-23T07:20:16;42.00;;;28.08;;
55330;SDS011;58851;42.984;20.336;2024-03-23T07:22:42;49.90;;;31.10;;
55330;SDS011;58851;42.984;20.336;2024-03-23T07:25:10;52.28;;;30.58;;
55330;SDS011;58851;42.984;20.336;2024-03-23T07:27:36;37.90;;;24.70;;
55330;SDS011;58851;42.984;20.336;2024-03-23T07:30:02;37.65;;;23.33;;
55330;SDS011;58851;42.984;20.336;2024-03-23T07:32:28;28.85;;;18.33;;
55330;SDS011;58851;42.984;20.336;2024-03-23T07:34:53;30.52;;;18.98;;
55330;SDS011;58851;42.984;20.336;2024-03-23T07:37:19;23.88;;;16.00;;
55330;SDS011;58851;42.984;20.336;2024-03-23T07:39:45;33.55;;;19.13;;
55330;SDS011;58851;42.984;20.336;2024-03-23T07:42:11;36.15;;;23.00;;
55330;SDS011;58851;42.984;20.336;2024-03-23T07:44:36;34.00;;;20.20;;
55330;SDS011;58851;42.984;20.336;2024-03-23T07:47:03;31.55;;;21.13;;
55330;SDS011;58851;42.984;20.336;2024-03-23T07:49:29;40.28;;;23.92;;
55330;SDS011;58851;42.984;20.336;2024-03-23T07:51:54;36.97;;;24.98;;
55330;SDS011;58851;42.984;20.336;2024-03-23T07:54:20;33.28;;;21.33;;
55330;SDS011;58851;42.984;20.336;2024-03-23T07:56:46;36.92;;;24.55;;
55330;SDS011;58851;42.984;20.336;2024-03-23T07:59:12;36.75;;;22.63;;
55330;SDS011;58851;42.984;20.336;2024-03-23T08:01:38;27.63;;;17.20;;
55330;SDS011;58851;42.984;20.336;2024-03-23T08:04:03;24.27;;;15.35;;
55330;SDS011;58851;42.984;20.336;2024-03-23T08:06:29;23.77;;;12.27;;
55330;SDS011;58851;42.984;20.336;2024-03-23T08:08:55;22.95;;;12.20;;
55330;SDS011;58851;42.984;20.336;2024-03-23T08:11:25;20.60;;;12.98;;
55330;SDS011;58851;42.984;20.336;2024-03-23T08:13:52;23.70;;;16.02;;
55330;SDS011;58851;42.984;20.336;2024-03-23T08:16:17;24.75;;;15.20;;
55330;SDS011;58851;42.984;20.336;2024-03-23T08:18:43;23.52;;;15.48;;
55330;SDS011;58851;42.984;20.336;2024-03-23T08:21:09;22.27;;;13.73;;
55330;SDS011;58851;42.984;20.336;2024-03-23T08:23:35;17.70;;;13.70;;
55330;SDS011;58851;42.984;20.336;2024-03-23T08:26:06;26.83;;;16.20;;
55330;SDS011;58851;42.984;20.336;2024-03-23T08:28:33;29.00;;;18.30;;
55330;SDS011;58851;42.984;20.336;2024-03-23T08:31:03;30.45;;;18.95;;
55330;SDS011;58851;42.984;20.336;2024-03-23T08:33:30;30.85;;;18.55;;
55330;SDS011;58851;42.984;20.336;2024-03-23T08:35:57;47.97;;;30.77;;
55330;SDS011;58851;42.984;20.336;2024-03-23T08:38:24;28.38;;;18.60;;
55330;SDS011;58851;42.984;20.336;2024-03-23T08:40:59;25.02;;;16.77;;
55330;SDS011;58851;42.984;20.336;2024-03-23T08:43:35;28.93;;;18.30;;
55330;SDS011;58851;42.984;20.336;2024-03-23T08:46:03;25.40;;;16.45;;
55330;SDS011;58851;42.984;20.336;2024-03-23T08:48:30;20.80;;;14.75;;
55330;SDS011;58851;42.984;20.336;2024-03-23T08:51:00;23.73;;;16.58;;
55330;SDS011;58851;42.984;20.336;2024-03-23T08:53:33;30.70;;;16.75;;
55330;SDS011;58851;42.984;20.336;2024-03-23T08:56:02;23.40;;;16.90;;
55330;SDS011;58851;42.984;20.336;2024-03-23T08:58:30;23.25;;;14.30;;
55330;SDS011;58851;42.984;20.336;2024-03-23T09:01:02;25.92;;;16.27;;
55330;SDS011;58851;42.984;20.336;2024-03-23T09:03:29;25.60;;;15.75;;
55330;SDS011;58851;42.984;20.336;2024-03-23T09:05:54;25.15;;;15.25;;
55330;SDS011;58851;42.984;20.336;2024-03-23T09:08:20;25.40;;;16.85;;
55330;SDS011;58851;42.984;20.336;2024-03-23T09:10:47;25.73;;;16.95;;
55330;SDS011;58851;42.984;20.336;2024-03-23T09:13:13;28.52;;;19.00;;
55330;SDS011;58851;42.984;20.336;2024-03-23T09:15:46;23.85;;;16.50;;
55330;SDS011;58851;42.984;20.336;2024-03-23T09:18:13;28.60;;;17.75;;
55330;SDS011;58851;42.984;20.336;2024-03-23T09:20:39;18.67;;;13.10;;
55330;SDS011;58851;42.984;20.336;2024-03-23T09:23:05;16.92;;;9.70;;
55330;SDS011;58851;42.984;20.336;2024-03-23T09:25:31;14.15;;;7.75;;
55330;SDS011;58851;42.984;20.336;2024-03-23T09:27:57;14.30;;;9.98;;
55330;SDS011;58851;42.984;20.336;2024-03-23T09:30:23;11.90;;;7.53;;
55330;SDS011;58851;42.984;20.336;2024-03-23T09:32:49;12.40;;;6.70;;
55330;SDS011;58851;42.984;20.336;2024-03-23T09:35:15;10.27;;;6.22;;
55330;SDS011;58851;42.984;20.336;2024-03-23T09:37:41;9.63;;;7.13;;
55330;SDS011;58851;42.984;20.336;2024-03-23T09:40:10;10.35;;;5.63;;
55330;SDS011;58851;42.984;20.336;2024-03-23T09:42:36;8.75;;;6.38;;
55330;SDS011;58851;42.984;20.336;2024-03-23T09:45:06;11.13;;;7.60;;
55330;SDS011;58851;42.984;20.336;2024-03-23T09:47:42;8.07;;;5.22;;
55330;SDS011;58851;42.984;20.336;2024-03-23T09:50:08;8.85;;;5.20;;
55330;SDS011;58851;42.984;20.336;2024-03-23T09:52:34;12.13;;;7.35;;
55330;SDS011;58851;42.984;20.336;2024-03-23T09:55:00;9.30;;;5.50;;
55330;SDS011;58851;42.984;20.336;2024-03-23T09:57:26;7.00;;;4.60;;
55330;SDS011;58851;42.984;20.336;2024-03-23T09:59:52;7.93;;;4.70;;
55330;SDS011;58851;42.984;20.336;2024-03-23T10:02:19;7.22;;;4.35;;
55330;SDS011;58851;42.984;20.336;2024-03-23T10:04:46;8.02;;;5.22;;
55330;SDS011;58851;42.984;20.336;2024-03-23T10:07:17;9.38;;;5.43;;
55330;SDS011;58851;42.984;20.336;2024-03-23T10:09:44;7.85;;;5.45;;
55330;SDS011;58851;42.984;20.336;2024-03-23T10:12:12;15.23;;;8.68;;
55330;SDS011;58851;42.984;20.336;2024-03-23T10:14:40;9.05;;;5.32;;
55330;SDS011;58851;42.984;20.336;2024-03-23T10:19:39;9.70;;;5.85;;
55330;SDS011;58851;42.984;20.336;2024-03-23T10:22:09;20.35;;;10.90;;
55330;SDS011;58851;42.984;20.336;2024-03-23T10:24:37;17.90;;;11.32;;
55330;SDS011;58851;42.984;20.336;2024-03-23T10:27:03;13.15;;;5.93;;
55330;SDS011;58851;42.984;20.336;2024-03-23T10:29:29;10.55;;;6.82;;
55330;SDS011;58851;42.984;20.336;2024-03-23T10:32:07;8.88;;;5.05;;
55330;SDS011;58851;42.984;20.336;2024-03-23T10:34:36;9.98;;;6.03;;
55330;SDS011;58851;42.984;20.336;2024-03-23T10:37:03;10.90;;;5.40;;
55330;SDS011;58851;42.984;20.336;2024-03-23T10:39:34;9.18;;;5.80;;
55330;SDS011;58851;42.984;20.336;2024-03-23T10:42:05;35.83;;;18.42;;
55330;SDS011;58851;42.984;20.336;2024-03-23T10:44:33;8.80;;;4.32;;
55330;SDS011;58851;42.984;20.336;2024-03-23T10:46:59;6.85;;;4.35;;
55330;SDS011;58851;42.984;20.336;2024-03-23T10:49:27;11.73;;;5.22;;
55330;SDS011;58851;42.984;20.336;2024-03-23T10:51:59;6.50;;;4.25;;
55330;SDS011;58851;42.984;20.336;2024-03-23T10:54:26;10.02;;;6.00;;
55330;SDS011;58851;42.984;20.336;2024-03-23T11:00:02;5.80;;;3.28;;
55330;SDS011;58851;42.984;20.336;2024-03-23T11:02:30;7.72;;;3.45;;
55330;SDS011;58851;42.984;20.336;2024-03-23T11:04:56;8.65;;;5.32;;
55330;SDS011;58851;42.984;20.336;2024-03-23T11:07:29;8.32;;;4.68;;
55330;SDS011;58851;42.984;20.336;2024-03-23T11:15:04;7.28;;;3.60;;
55330;SDS011;58851;42.984;20.336;2024-03-23T11:17:36;11.05;;;5.18;;
55330;SDS011;58851;42.984;20.336;2024-03-23T11:20:02;9.98;;;5.70;;
55330;SDS011;58851;42.984;20.336;2024-03-23T11:22:46;7.30;;;4.30;;
55330;SDS011;58851;42.984;20.336;2024-03-23T11:27:52;6.40;;;2.60;;
55330;SDS011;58851;42.984;20.336;2024-03-23T11:30:37;13.70;;;8.30;;
55330;SDS011;58851;42.984;20.336;2024-03-23T11:33:03;11.18;;;3.90;;
55330;SDS011;58851;42.984;20.336;2024-03-23T11:35:30;8.25;;;3.83;;
55330;SDS011;58851;42.984;20.336;2024-03-23T11:38:16;6.95;;;3.75;;
55330;SDS011;58851;42.984;20.336;2024-03-23T11:40:50;5.35;;;3.15;;
55330;SDS011;58851;42.984;20.336;2024-03-23T11:43:17;4.95;;;3.08;;
55330;SDS011;58851;42.984;20.336;2024-03-23T11:48:17;7.07;;;3.15;;
55330;SDS011;58851;42.984;20.336;2024-03-23T11:50:45;6.57;;;4.05;;
55330;SDS011;58851;42.984;20.336;2024-03-23T11:53:16;5.45;;;2.75;;
55330;SDS011;58851;42.984;20.336;2024-03-23T11:55:53;11.10;;;6.88;;
55330;SDS011;58851;42.984;20.336;2024-03-23T11:58:26;14.75;;;8.88;;
55330;SDS011;58851;42.984;20.336;2024-03-23T12:00:55;8.60;;;6.00;;
55330;SDS011;58851;42.984;20.336;2024-03-23T12:03:22;5.40;;;3.15;;
55330;SDS011;58851;42.984;20.336;2024-03-23T12:05:54;8.15;;;3.00;;
55330;SDS011;58851;42.984;20.336;2024-03-23T12:08:34;6.15;;;2.67;;
55330;SDS011;58851;42.984;20.336;2024-03-23T12:13:36;6.25;;;4.10;;
55330;SDS011;58851;42.984;20.336;2024-03-23T12:16:09;21.92;;;14.82;;
55330;SDS011;58851;42.984;20.336;2024-03-23T12:18:37;8.35;;;4.50;;
55330;SDS011;58851;42.984;20.336;2024-03-23T12:21:04;9.30;;;4.20;;
55330;SDS011;58851;42.984;20.336;2024-03-23T12:23:29;6.60;;;4.03;;
55330;SDS011;58851;42.984;20.336;2024-03-23T12:25:55;9.05;;;5.05;;
55330;SDS011;58851;42.984;20.336;2024-03-23T12:28:21;6.68;;;4.13;;
55330;SDS011;58851;42.984;20.336;2024-03-23T12:30:47;7.85;;;4.53;;
55330;SDS011;58851;42.984;20.336;2024-03-23T12:33:13;7.40;;;4.57;;
55330;SDS011;58851;42.984;20.336;2024-03-23T12:35:39;6.15;;;3.88;;
55330;SDS011;58851;42.984;20.336;2024-03-23T12:38:05;20.50;;;5.60;;
55330;SDS011;58851;42.984;20.336;2024-03-23T12:40:30;7.50;;;3.50;;
55330;SDS011;58851;42.984;20.336;2024-03-23T12:42:56;6.65;;;4.45;;
55330;SDS011;58851;42.984;20.336;2024-03-23T12:45:22;10.00;;;6.25;;
55330;SDS011;58851;42.984;20.336;2024-03-23T12:47:48;10.65;;;5.63;;
55330;SDS011;58851;42.984;20.336;2024-03-23T12:50:14;31.33;;;20.85;;
55330;SDS011;58851;42.984;20.336;2024-03-23T12:52:40;16.17;;;6.10;;
55330;SDS011;58851;42.984;20.336;2024-03-23T12:55:06;18.42;;;11.00;;
55330;SDS011;58851;42.984;20.336;2024-03-23T12:57:32;25.83;;;12.95;;
55330;SDS011;58851;42.984;20.336;2024-03-23T12:59:58;7.88;;;5.13;;
55330;SDS011;58851;42.984;20.336;2024-03-23T13:02:24;6.85;;;4.85;;
55330;SDS011;58851;42.984;20.336;2024-03-23T13:04:51;12.48;;;5.97;;
55330;SDS011;58851;42.984;20.336;2024-03-23T13:07:17;18.33;;;9.35;;
55330;SDS011;58851;42.984;20.336;2024-03-23T13:09:44;10.93;;;7.72;;
55330;SDS011;58851;42.984;20.336;2024-03-23T13:12:10;9.15;;;6.57;;
55330;SDS011;58851;42.984;20.336;2024-03-23T13:14:39;16.52;;;8.88;;
55330;SDS011;58851;42.984;20.336;2024-03-23T13:17:05;22.27;;;18.27;;
55330;SDS011;58851;42.984;20.336;2024-03-23T13:19:33;13.55;;;7.18;;
55330;SDS011;58851;42.984;20.336;2024-03-23T13:21:59;12.88;;;8.07;;
55330;SDS011;58851;42.984;20.336;2024-03-23T13:24:26;15.02;;;8.25;;
55330;SDS011;58851;42.984;20.336;2024-03-23T13:26:54;20.40;;;11.32;;
55330;SDS011;58851;42.984;20.336;2024-03-23T13:29:21;27.10;;;14.05;;
55330;SDS011;58851;42.984;20.336;2024-03-23T13:31:47;10.07;;;5.70;;
55330;SDS011;58851;42.984;20.336;2024-03-23T13:34:14;13.02;;;8.57;;
55330;SDS011;58851;42.984;20.336;2024-03-23T13:36:46;16.48;;;11.35;;
55330;SDS011;58851;42.984;20.336;2024-03-23T13:39:13;14.48;;;7.55;;
55330;SDS011;58851;42.984;20.336;2024-03-23T13:41:41;14.68;;;7.50;;
55330;SDS011;58851;42.984;20.336;2024-03-23T13:44:10;12.02;;;6.03;;
55330;SDS011;58851;42.984;20.336;2024-03-23T13:46:38;14.95;;;9.85;;
55330;SDS011;58851;42.984;20.336;2024-03-23T13:49:05;12.77;;;7.55;;
55330;SDS011;58851;42.984;20.336;2024-03-23T13:51:31;15.95;;;12.23;;
55330;SDS011;58851;42.984;20.336;2024-03-23T13:53:58;10.95;;;8.60;;
55330;SDS011;58851;42.984;20.336;2024-03-23T13:56:29;9.57;;;5.95;;
55330;SDS011;58851;42.984;20.336;2024-03-23T13:58:56;13.43;;;6.15;;
55330;SDS011;58851;42.984;20.336;2024-03-23T14:01:23;18.27;;;8.68;;
55330;SDS011;58851;42.984;20.336;2024-03-23T14:03:49;14.63;;;7.82;;
55330;SDS011;58851;42.984;20.336;2024-03-23T14:06:15;14.90;;;9.55;;
55330;SDS011;58851;42.984;20.336;2024-03-23T14:08:41;20.05;;;12.70;;
55330;SDS011;58851;42.984;20.336;2024-03-23T14:11:08;15.27;;;8.82;;
55330;SDS011;58851;42.984;20.336;2024-03-23T14:13:35;27.50;;;10.75;;
55330;SDS011;58851;42.984;20.336;2024-03-23T14:16:01;21.15;;;8.15;;
55330;SDS011;58851;42.984;20.336;2024-03-23T14:18:27;22.13;;;10.73;;
55330;SDS011;58851;42.984;20.336;2024-03-23T14:21:00;13.63;;;8.60;;
55330;SDS011;58851;42.984;20.336;2024-03-23T14:23:26;15.55;;;7.65;;
55330;SDS011;58851;42.984;20.336;2024-03-23T14:25:58;20.67;;;11.93;;
55330;SDS011;58851;42.984;20.336;2024-03-23T14:28:24;14.70;;;8.45;;
55330;SDS011;58851;42.984;20.336;2024-03-23T14:30:50;11.73;;;6.93;;
55330;SDS011;58851;42.984;20.336;2024-03-23T14:33:17;26.63;;;9.80;;
55330;SDS011;58851;42.984;20.336;2024-03-23T14:35:43;17.75;;;8.52;;
55330;SDS011;58851;42.984;20.336;2024-03-23T14:38:20;22.17;;;8.60;;
55330;SDS011;58851;42.984;20.336;2024-03-23T14:40:46;15.13;;;9.25;;
55330;SDS011;58851;42.984;20.336;2024-03-23T14:43:12;12.95;;;8.50;;
55330;SDS011;58851;42.984;20.336;2024-03-23T14:45:48;14.93;;;7.82;;
55330;SDS011;58851;42.984;20.336;2024-03-23T14:48:39;14.48;;;8.02;;
55330;SDS011;58851;42.984;20.336;2024-03-23T14:51:06;15.07;;;9.07;;
55330;SDS011;58851;42.984;20.336;2024-03-23T14:53:39;11.57;;;7.38;;
55330;SDS011;58851;42.984;20.336;2024-03-23T14:56:06;12.38;;;8.73;;
55330;SDS011;58851;42.984;20.336;2024-03-23T14:58:32;14.18;;;9.40;;
55330;SDS011;58851;42.984;20.336;2024-03-23T15:01:03;10.15;;;7.40;;
55330;SDS011;58851;42.984;20.336;2024-03-23T15:03:34;11.18;;;6.78;;
55330;SDS011;58851;42.984;20.336;2024-03-23T15:06:01;12.98;;;7.85;;
55330;SDS011;58851;42.984;20.336;2024-03-23T15:08:27;16.55;;;8.88;;
55330;SDS011;58851;42.984;20.336;2024-03-23T15:10:54;11.45;;;8.10;;
55330;SDS011;58851;42.984;20.336;2024-03-23T15:13:20;12.93;;;7.32;;
55330;SDS011;58851;42.984;20.336;2024-03-23T15:15:48;14.90;;;8.55;;
55330;SDS011;58851;42.984;20.336;2024-03-23T15:18:14;16.70;;;8.25;;
55330;SDS011;58851;42.984;20.336;2024-03-23T15:20:41;18.20;;;9.57;;
55330;SDS011;58851;42.984;20.336;2024-03-23T15:23:16;10.18;;;7.45;;
55330;SDS011;58851;42.984;20.336;2024-03-23T15:25:42;14.57;;;8.27;;